Time,TemperatureF,DewpointF,PressureIn,WindDirection,WindDirectionDegrees,WindSpeedMPH,WindSpeedGustMPH,Humidity,HourlyPrecipIn,Conditions,Clouds,dailyrainin,SoftwareType,DateUTC
2013-10-23 00:01:00,47.3,47.3,30.06,West,259,0.0,0.0,100,0.00,,,0.00,VWS V13.01,2013-10-23 05:01:00,
2013-10-23 00:06:00,47.2,47.2,30.06,West,259,0.0,0.0,100,0.00,,,0.00,VWS V13.01,2013-10-23 05:06:00,
2013-10-23 00:11:00,47.2,47.2,30.06,West,259,0.0,0.0,100,0.00,,,0.00,VWS V13.01,2013-10-23 05:11:00,
2013-10-23 00:16:00,47.0,47.0,30.06,West,259,0.0,0.0,100,0.00,,,0.00,VWS V13.01,2013-10-23 05:16:00,
2013-10-23 00:21:00,46.8,46.8,30.06,West,259,0.0,0.0,100,0.00,,,0.00,VWS V13.01,2013-10-23 05:21:00,
2013-10-23 00:26:00,46.6,46.6,30.06,West,259,0.0,0.0,100,0.00,,,0.00,VWS V13.01,2013-10-23 05:26:00,
2013-10-23 00:31:00,46.4,46.4,30.06,West,259,0.0,0.0,100,0.00,,,0.00,VWS V13.01,2013-10-23 05:31:00,
2013-10-23 00:36:00,46.3,46.3,30.06,West,259,0.0,0.0,100,0.00,,,0.00,VWS V13.01,2013-10-23 05:36:00,
2013-10-23 00:41:00,46.1,46.1,30.06,West,259,0.0,0.0,100,0.00,,,0.00,VWS V13.01,2013-10-23 05:41:00,
2013-10-23 00:45:00,46.3,46.3,30.06,West,259,0.0,0.0,100,0.00,,,0.00,VWS V13.01,2013-10-23 05:45:00,
2013-10-23 00:50:00,46.1,46.1,30.06,West,259,0.0,0.0,100,0.00,,,0.00,VWS V13.01,2013-10-23 05:50:00,
2013-10-23 00:55:00,45.9,45.9,30.06,West,259,0.0,0.0,100,0.00,,,0.00,VWS V13.01,2013-10-23 05:55:00,
2013-10-23 01:01:00,45.9,45.9,30.06,West,259,0.0,0.0,100,0.00,,,0.00,VWS V13.01,2013-10-23 06:01:00,
2013-10-23 01:06:00,45.9,45.9,30.06,West,259,0.0,0.0,100,0.00,,,0.00,VWS V13.01,2013-10-23 06:06:00,
2013-10-23 01:11:00,45.9,45.9,30.06,West,259,0.0,0.0,100,0.00,,,0.00,VWS V13.01,2013-10-23 06:11:00,
2013-10-23 01:16:00,45.5,45.5,30.06,West,259,0.0,0.0,100,0.00,,,0.00,VWS V13.01,2013-10-23 06:16:00,
2013-10-23 01:21:00,45.0,45.0,30.06,NW,322,0.0,0.0,100,0.00,,,0.00,VWS V13.01,2013-10-23 06:21:00,
2013-10-23 01:26:00,44.6,44.6,30.06,NNW,328,0.0,0.0,100,0.00,,,0.00,VWS V13.01,2013-10-23 06:26:00,
2013-10-23 01:31:00,44.3,44.3,30.06,NNE,29,0.0,0.0,100,0.00,,,0.00,VWS V13.01,2013-10-23 06:31:00,
2013-10-23 01:36:00,44.1,44.1,30.06,NNE,29,0.0,0.0,100,0.00,,,0.00,VWS V13.01,2013-10-23 06:36:00,
2013-10-23 01:41:00,44.1,44.1,30.09,NNE,29,0.0,0.0,100,0.00,,,0.00,VWS V13.01,2013-10-23 06:41:00,
2013-10-23 01:46:00,43.9,43.9,30.09,NNE,29,0.0,0.0,100,0.00,,,0.00,VWS V13.01,2013-10-23 06:46:00,
2013-10-23 01:51:00,43.6,43.6,30.09,WNW,287,0.0,0.0,100,0.00,,,0.00,VWS V13.01,2013-10-23 06:51:00,
2013-10-23 01:56:00,43.7,43.7,30.09,WNW,287,0.0,0.0,100,0.00,,,0.00,VWS V13.01,2013-10-23 06:56:00,
2013-10-23 02:00:00,43.9,43.9,30.09,WNW,302,3.6,3.6,100,0.00,,,0.00,VWS V13.01,2013-10-23 07:00:00,
2013-10-23 02:05:00,44.1,44.1,30.09,North,354,0.0,0.0,100,0.00,,,0.00,VWS V13.01,2013-10-23 07:05:00,
2013-10-23 02:10:00,43.7,43.7,30.09,North,354,0.0,0.0,100,0.00,,,0.00,VWS V13.01,2013-10-23 07:10:00,
2013-10-23 02:15:00,43.6,43.6,30.09,North,354,0.0,0.0,100,0.00,,,0.00,VWS V13.01,2013-10-23 07:15:00,
2013-10-23 02:20:00,43.4,43.4,30.09,North,354,0.0,0.0,100,0.00,,,0.00,VWS V13.01,2013-10-23 07:20:00,
2013-10-23 02:25:00,43.2,43.2,30.09,North,354,0.0,0.0,100,0.00,,,0.00,VWS V13.01,2013-10-23 07:25:00,
2013-10-23 02:30:00,42.8,42.8,30.09,North,354,0.0,0.0,100,0.00,,,0.00,VWS V13.01,2013-10-23 07:30:00,
2013-10-23 02:35:00,42.8,42.8,30.09,North,6,0.0,0.0,100,0.00,,,0.00,VWS V13.01,2013-10-23 07:35:00,
2013-10-23 02:40:00,42.8,42.8,30.09,North,354,0.0,0.0,100,0.00,,,0.00,VWS V13.01,2013-10-23 07:40:00,
2013-10-23 02:45:00,42.8,42.8,30.09,North,354,0.0,0.0,100,0.00,,,0.00,VWS V13.01,2013-10-23 07:45:00,
2013-10-23 02:50:00,42.8,42.8,30.09,North,354,0.0,0.0,100,0.00,,,0.00,VWS V13.01,2013-10-23 07:50:00,
2013-10-23 02:55:00,42.5,42.5,30.09,North,354,0.0,0.0,100,0.00,,,0.00,VWS V13.01,2013-10-23 07:55:00,
2013-10-23 03:00:00,42.3,42.3,30.09,North,354,0.0,0.0,100,0.00,,,0.00,VWS V13.01,2013-10-23 08:00:00,
2013-10-23 03:05:00,42.1,42.1,30.09,North,354,0.0,0.0,100,0.00,,,0.00,VWS V13.01,2013-10-23 08:05:00,
2013-10-23 03:10:00,42.1,42.1,30.09,West,272,0.0,0.0,100,0.00,,,0.00,VWS V13.01,2013-10-23 08:10:00,
2013-10-23 03:15:00,41.9,41.9,30.09,West,272,0.0,0.0,100,0.00,,,0.00,VWS V13.01,2013-10-23 08:15:00,
2013-10-23 03:20:00,41.9,41.9,30.09,NNE,28,0.0,0.0,100,0.00,,,0.00,VWS V13.01,2013-10-23 08:20:00,
2013-10-23 03:25:00,41.6,41.6,30.09,NE,43,2.7,4.0,100,0.00,,,0.00,VWS V13.01,2013-10-23 08:25:00,
2013-10-23 03:30:00,41.2,41.2,30.09,NE,45,2.2,2.2,100,0.00,,,0.00,VWS V13.01,2013-10-23 08:30:00,
2013-10-23 03:35:00,41.2,41.2,30.09,NE,45,0.0,0.0,100,0.00,,,0.00,VWS V13.01,2013-10-23 08:35:00,
2013-10-23 03:40:00,41.0,41.0,30.09,NE,45,0.0,0.0,100,0.00,,,0.00,VWS V13.01,2013-10-23 08:40:00,
2013-10-23 03:45:00,41.0,41.0,30.11,NE,45,0.0,0.0,100,0.00,,,0.00,VWS V13.01,2013-10-23 08:45:00,
2013-10-23 03:50:00,41.4,41.4,30.11,NE,45,0.0,0.0,100,0.00,,,0.00,VWS V13.01,2013-10-23 08:50:00,
2013-10-23 03:55:00,41.4,41.4,30.11,NE,45,0.0,0.0,100,0.00,,,0.00,VWS V13.01,2013-10-23 08:55:00,
2013-10-23 04:00:00,41.8,41.8,30.11,NW,326,0.0,0.0,100,0.00,,,0.00,VWS V13.01,2013-10-23 09:00:00,
2013-10-23 04:05:00,41.8,41.8,30.11,West,260,0.0,0.0,100,0.00,,,0.00,VWS V13.01,2013-10-23 09:05:00,
2013-10-23 04:10:00,43.0,43.0,30.11,West,261,2.7,3.6,100,0.00,,,0.00,VWS V13.01,2013-10-23 09:10:00,
2013-10-23 04:15:00,43.4,43.4,30.11,WSW,241,0.0,0.0,100,0.00,,,0.00,VWS V13.01,2013-10-23 09:15:00,
2013-10-23 04:20:00,43.6,43.6,30.11,West,260,0.0,0.0,100,0.00,,,0.00,VWS V13.01,2013-10-23 09:20:00,
2013-10-23 04:25:00,43.2,43.2,30.11,ENE,64,3.1,3.1,100,0.00,,,0.00,VWS V13.01,2013-10-23 09:25:00,
2013-10-23 04:30:00,42.3,42.3,30.11,North,3,0.0,0.0,100,0.00,,,0.00,VWS V13.01,2013-10-23 09:30:00,
2013-10-23 04:35:00,42.1,42.1,30.11,East,81,0.0,0.0,100,0.00,,,0.00,VWS V13.01,2013-10-23 09:35:00,
2013-10-23 04:40:00,41.8,41.8,30.11,North,357,0.0,0.0,100,0.00,,,0.00,VWS V13.01,2013-10-23 09:40:00,
2013-10-23 04:45:00,41.8,41.8,30.11,North,352,0.0,0.0,100,0.00,,,0.00,VWS V13.01,2013-10-23 09:45:00,
2013-10-23 04:50:00,41.6,41.6,30.11,NE,34,3.6,3.6,100,0.00,,,0.00,VWS V13.01,2013-10-23 09:50:00,
2013-10-23 04:55:00,41.2,41.2,30.11,NE,36,0.0,2.2,100,0.00,,,0.00,VWS V13.01,2013-10-23 09:55:00,
2013-10-23 05:00:00,41.0,41.0,30.11,NE,36,0.0,0.0,100,0.00,,,0.00,VWS V13.01,2013-10-23 10:00:00,
2013-10-23 05:05:00,41.0,41.0,30.11,NE,36,0.0,0.0,100,0.00,,,0.00,VWS V13.01,2013-10-23 10:05:00,
2013-10-23 05:10:00,41.0,41.0,30.11,NE,36,0.0,0.0,100,0.00,,,0.00,VWS V13.01,2013-10-23 10:10:00,
2013-10-23 05:15:00,41.0,41.0,30.14,NE,36,0.0,0.0,100,0.00,,,0.00,VWS V13.01,2013-10-23 10:15:00,
2013-10-23 05:20:00,41.0,41.0,30.14,NE,36,0.0,0.0,100,0.00,,,0.00,VWS V13.01,2013-10-23 10:20:00,
2013-10-23 05:25:00,41.0,41.0,30.14,NE,36,0.0,0.0,100,0.00,,,0.00,VWS V13.01,2013-10-23 10:25:00,
2013-10-23 05:30:00,41.0,41.0,30.14,NW,306,0.0,0.0,100,0.00,,,0.00,VWS V13.01,2013-10-23 10:30:00,
2013-10-23 05:35:00,41.0,41.0,30.14,NW,306,0.0,0.0,100,0.00,,,0.00,VWS V13.01,2013-10-23 10:35:00,
2013-10-23 05:40:00,41.0,41.0,30.14,NW,308,0.0,0.0,100,0.00,,,0.00,VWS V13.01,2013-10-23 10:40:00,
2013-10-23 05:45:00,40.7,40.7,30.14,NW,308,0.0,0.0,100,0.00,,,0.00,VWS V13.01,2013-10-23 10:45:00,
2013-10-23 05:50:00,40.3,40.3,30.14,NW,308,0.0,0.0,100,0.00,,,0.00,VWS V13.01,2013-10-23 10:50:00,
2013-10-23 05:55:00,40.1,40.1,30.14,NW,308,0.0,0.0,100,0.00,,,0.00,VWS V13.01,2013-10-23 10:55:00,
2013-10-23 06:00:00,40.0,40.0,30.14,NW,308,0.0,0.0,100,0.00,,,0.00,VWS V13.01,2013-10-23 11:00:00,
2013-10-23 06:05:00,39.8,39.8,30.14,NW,308,0.0,0.0,100,0.00,,,0.00,VWS V13.01,2013-10-23 11:05:00,
2013-10-23 06:10:00,39.8,39.8,30.14,NW,308,0.0,0.0,100,0.00,,,0.00,VWS V13.01,2013-10-23 11:10:00,
2013-10-23 06:15:00,39.8,39.8,30.14,NW,308,0.0,0.0,100,0.00,,,0.00,VWS V13.01,2013-10-23 11:15:00,
2013-10-23 06:20:00,39.6,39.6,30.14,NW,308,0.0,0.0,100,0.00,,,0.00,VWS V13.01,2013-10-23 11:20:00,
2013-10-23 06:25:00,39.2,39.2,30.14,NNE,33,0.0,0.0,100,0.00,,,0.00,VWS V13.01,2013-10-23 11:25:00,
2013-10-23 06:30:00,39.1,39.1,30.14,WNW,292,0.0,0.0,100,0.00,,,0.00,VWS V13.01,2013-10-23 11:30:00,
2013-10-23 06:35:00,38.9,38.9,30.14,WNW,292,0.0,0.0,100,0.00,,,0.00,VWS V13.01,2013-10-23 11:35:00,
2013-10-23 06:40:00,38.9,38.9,30.14,WNW,292,0.0,0.0,100,0.00,,,0.00,VWS V13.01,2013-10-23 11:40:00,
2013-10-23 06:45:00,38.7,38.7,30.17,WNW,292,0.0,0.0,100,0.00,,,0.00,VWS V13.01,2013-10-23 11:45:00,
2013-10-23 06:50:00,38.7,38.7,30.17,WNW,292,0.0,0.0,100,0.00,,,0.00,VWS V13.01,2013-10-23 11:50:00,
2013-10-23 06:55:00,38.7,38.7,30.17,WNW,293,0.0,0.0,100,0.00,,,0.00,VWS V13.01,2013-10-23 11:55:00,
2013-10-23 07:00:00,38.5,38.5,30.14,WNW,293,0.0,0.0,100,0.00,,,0.00,VWS V13.01,2013-10-23 12:00:00,
2013-10-23 07:05:00,38.3,38.3,30.14,WNW,292,0.0,0.0,100,0.00,,,0.00,VWS V13.01,2013-10-23 12:05:00,
2013-10-23 07:10:00,38.2,38.2,30.14,NW,315,0.0,0.0,100,0.00,,,0.00,VWS V13.01,2013-10-23 12:10:00,
2013-10-23 07:15:00,38.2,38.2,30.17,NW,315,0.0,0.0,100,0.00,,,0.00,VWS V13.01,2013-10-23 12:15:00,
2013-10-23 07:20:00,38.2,38.2,30.17,NW,315,0.0,0.0,100,0.00,,,0.00,VWS V13.01,2013-10-23 12:20:00,
2013-10-23 07:25:00,38.0,38.0,30.17,NW,315,0.0,0.0,100,0.00,,,0.00,VWS V13.01,2013-10-23 12:25:00,
2013-10-23 07:30:00,37.8,37.8,30.17,NNE,32,0.0,0.0,100,0.00,,,0.00,VWS V13.01,2013-10-23 12:30:00,
2013-10-23 07:35:00,37.6,37.6,30.17,NNE,32,0.0,0.0,100,0.00,,,0.00,VWS V13.01,2013-10-23 12:35:00,
2013-10-23 07:40:00,37.4,37.4,30.17,North,4,2.7,2.7,100,0.00,,,0.00,VWS V13.01,2013-10-23 12:40:00,
2013-10-23 07:45:00,37.4,37.4,30.17,NE,55,0.0,0.0,100,0.00,,,0.00,VWS V13.01,2013-10-23 12:45:00,
2013-10-23 07:49:00,37.4,37.4,30.17,NE,55,0.0,0.0,100,0.00,,,0.00,VWS V13.01,2013-10-23 12:49:00,
2013-10-23 07:54:00,37.4,37.4,30.17,SSE,160,0.0,0.0,100,0.00,,,0.00,VWS V13.01,2013-10-23 12:54:00,
2013-10-23 07:59:00,37.6,37.6,30.17,SSE,160,0.0,0.0,100,0.00,,,0.00,VWS V13.01,2013-10-23 12:59:00,
2013-10-23 08:04:00,38.0,38.0,30.17,WSW,242,0.0,0.0,100,0.00,,,0.00,VWS V13.01,2013-10-23 13:04:00,
2013-10-23 08:09:00,38.3,38.3,30.17,WSW,242,0.0,0.0,100,0.00,,,0.00,VWS V13.01,2013-10-23 13:09:00,
2013-10-23 08:14:00,38.9,38.9,30.20,WNW,302,0.0,0.0,100,0.00,,,0.00,VWS V13.01,2013-10-23 13:14:00,
2013-10-23 08:19:00,39.4,39.4,30.20,North,6,0.0,0.0,100,0.00,,,0.00,VWS V13.01,2013-10-23 13:19:00,
2013-10-23 08:24:00,40.0,40.0,30.20,North,6,0.0,0.0,100,0.00,,,0.00,VWS V13.01,2013-10-23 13:24:00,
2013-10-23 08:29:00,40.9,40.9,30.20,North,6,0.0,0.0,100,0.00,,,0.00,VWS V13.01,2013-10-23 13:29:00,
2013-10-23 08:34:00,41.6,41.6,30.20,ENE,57,0.0,0.0,100,0.00,,,0.00,VWS V13.01,2013-10-23 13:34:00,
2013-10-23 08:39:00,42.1,42.1,30.20,ENE,65,0.0,0.0,100,0.00,,,0.00,VWS V13.01,2013-10-23 13:39:00,
2013-10-23 08:44:00,42.8,42.8,30.20,ENE,65,0.0,0.0,100,0.00,,,0.00,VWS V13.01,2013-10-23 13:44:00,
2013-10-23 08:49:00,43.7,43.7,30.20,ENE,65,0.0,0.0,100,0.00,,,0.00,VWS V13.01,2013-10-23 13:49:00,
2013-10-23 08:54:00,44.8,44.8,30.20,ENE,65,0.0,0.0,100,0.00,,,0.00,VWS V13.01,2013-10-23 13:54:00,
2013-10-23 08:59:00,45.9,45.9,30.20,ENE,65,0.0,0.0,100,0.00,,,0.00,VWS V13.01,2013-10-23 13:59:00,
2013-10-23 09:04:00,47.0,47.0,30.20,ENE,66,0.0,0.0,100,0.00,,,0.00,VWS V13.01,2013-10-23 14:04:00,
2013-10-23 09:09:00,47.7,47.7,30.20,ENE,66,0.0,0.0,100,0.00,,,0.00,VWS V13.01,2013-10-23 14:09:00,
2013-10-23 09:14:00,48.6,48.6,30.20,East,80,0.0,0.0,100,0.00,,,0.00,VWS V13.01,2013-10-23 14:14:00,
2013-10-23 09:24:00,49.1,49.1,30.20,SSW,194,0.0,0.0,100,0.00,,,0.00,VWS V13.01,2013-10-23 14:24:00,
2013-10-23 09:29:00,49.1,49.1,30.23,WSW,237,0.0,0.0,100,0.00,,,0.00,VWS V13.01,2013-10-23 14:29:00,
2013-10-23 09:34:00,49.0,49.0,30.23,West,265,3.6,3.6,100,0.00,,,0.00,VWS V13.01,2013-10-23 14:34:00,
2013-10-23 09:39:00,50.0,39.1,30.23,WSW,255,4.0,5.8,66,0.00,,,0.00,VWS V13.01,2013-10-23 14:39:00,
2013-10-23 09:43:00,50.6,39.3,30.23,West,268,5.4,5.8,65,0.00,,,0.00,VWS V13.01,2013-10-23 14:43:00,
2013-10-23 09:48:00,51.1,39.8,30.23,West,263,4.9,4.9,65,0.00,,,0.00,VWS V13.01,2013-10-23 14:48:00,
2013-10-23 09:53:00,51.7,39.9,30.23,WSW,251,3.1,3.6,64,0.00,,,0.00,VWS V13.01,2013-10-23 14:53:00,
2013-10-23 09:58:00,51.8,40.1,30.23,SW,233,3.1,3.1,64,0.00,,,0.00,VWS V13.01,2013-10-23 14:58:00,
2013-10-23 10:03:00,52.0,40.2,30.23,WSW,239,3.1,3.1,64,0.00,,,0.00,VWS V13.01,2013-10-23 15:03:00,
2013-10-23 10:08:00,52.2,40.4,30.23,SW,218,0.0,2.2,64,0.00,,,0.00,VWS V13.01,2013-10-23 15:08:00,
2013-10-23 10:13:00,52.6,40.3,30.23,West,269,0.0,0.0,63,0.00,,,0.00,VWS V13.01,2013-10-23 15:13:00,
2013-10-23 10:18:00,52.7,40.1,30.23,WSW,245,3.1,3.1,62,0.00,,,0.00,VWS V13.01,2013-10-23 15:18:00,
2013-10-23 10:23:00,53.1,38.7,30.23,NNE,16,3.1,3.6,58,0.00,,,0.00,VWS V13.01,2013-10-23 15:23:00,
2013-10-23 10:28:00,53.5,40.4,30.20,South,184,4.0,4.0,61,0.00,,,0.00,VWS V13.01,2013-10-23 15:28:00,
2013-10-23 10:33:00,54.0,39.6,30.20,South,178,2.2,3.1,58,0.00,,,0.00,VWS V13.01,2013-10-23 15:33:00,
2013-10-23 10:38:00,54.2,40.2,30.20,SE,129,4.9,4.9,59,0.00,,,0.00,VWS V13.01,2013-10-23 15:38:00,
2013-10-23 10:43:00,54.9,40.4,30.20,South,185,4.9,4.9,58,0.00,,,0.00,VWS V13.01,2013-10-23 15:43:00,
2013-10-23 10:48:00,54.9,40.0,30.20,SE,125,3.6,3.6,57,0.00,,,0.00,VWS V13.01,2013-10-23 15:48:00,
2013-10-23 10:53:00,55.3,40.3,30.20,ESE,121,2.7,2.7,57,0.00,,,0.00,VWS V13.01,2013-10-23 15:53:00,
2013-10-23 10:58:00,55.4,40.0,30.20,SSE,155,3.6,4.0,56,0.00,,,0.00,VWS V13.01,2013-10-23 15:58:00,
2013-10-23 11:03:00,55.6,40.2,30.20,WSW,237,0.0,3.1,56,0.00,,,0.00,VWS V13.01,2013-10-23 16:03:00,
2013-10-23 11:08:00,55.8,40.4,30.20,WSW,256,2.7,4.0,56,0.00,,,0.00,VWS V13.01,2013-10-23 16:08:00,
2013-10-23 11:13:00,55.8,40.4,30.20,NW,316,2.2,3.6,56,0.00,,,0.00,VWS V13.01,2013-10-23 16:13:00,
2013-10-23 11:18:00,56.2,40.2,30.20,SSW,197,0.0,4.0,55,0.00,,,0.00,VWS V13.01,2013-10-23 16:18:00,
2013-10-23 11:23:00,56.3,40.9,30.20,East,84,3.6,3.6,56,0.00,,,0.00,VWS V13.01,2013-10-23 16:23:00,
2013-10-23 11:28:00,57.4,41.4,30.20,ENE,65,0.0,0.0,55,0.00,,,0.00,VWS V13.01,2013-10-23 16:28:00,
2013-10-23 11:33:00,57.8,41.7,30.20,ESE,115,3.6,5.4,55,0.00,,,0.00,VWS V13.01,2013-10-23 16:33:00,
2013-10-23 11:38:00,58.0,41.4,30.20,ESE,111,2.7,2.7,54,0.00,,,0.00,VWS V13.01,2013-10-23 16:38:00,
2013-10-23 11:43:00,58.0,41.4,30.20,South,191,4.0,4.0,54,0.00,,,0.00,VWS V13.01,2013-10-23 16:43:00,
2013-10-23 11:48:00,57.6,41.1,30.20,NW,308,3.1,3.1,54,0.00,,,0.00,VWS V13.01,2013-10-23 16:48:00,
2013-10-23 11:53:00,57.4,40.9,30.20,NW,319,0.0,2.7,54,0.00,,,0.00,VWS V13.01,2013-10-23 16:53:00,
2013-10-23 11:58:00,58.1,41.6,30.20,ESE,116,0.0,0.0,54,0.00,,,0.00,VWS V13.01,2013-10-23 16:58:00,
2013-10-23 12:03:00,59.0,42.9,30.20,ESE,102,3.6,3.6,55,0.00,,,0.00,VWS V13.01,2013-10-23 17:03:00,
2013-10-23 12:08:00,58.9,42.3,30.20,ENE,69,3.1,5.8,54,0.00,,,0.00,VWS V13.01,2013-10-23 17:08:00,
2013-10-23 12:13:00,59.2,42.6,30.20,ESE,103,2.7,3.6,54,0.00,,,0.00,VWS V13.01,2013-10-23 17:13:00,
2013-10-23 12:18:00,59.8,43.1,30.20,SSW,197,4.0,4.0,54,0.00,,,0.00,VWS V13.01,2013-10-23 17:18:00,
2013-10-23 12:23:00,59.4,42.3,30.20,West,269,2.7,3.6,53,0.00,,,0.00,VWS V13.01,2013-10-23 17:23:00,
2013-10-23 12:28:00,58.7,42.1,30.20,WSW,255,2.7,4.0,54,0.00,,,0.00,VWS V13.01,2013-10-23 17:28:00,
2013-10-23 12:33:00,58.7,41.6,30.20,SSW,201,3.1,4.0,53,0.00,,,0.00,VWS V13.01,2013-10-23 17:33:00,
2013-10-23 12:38:00,58.9,41.8,30.20,SSE,150,3.6,3.6,53,0.00,,,0.00,VWS V13.01,2013-10-23 17:38:00,
2013-10-23 12:43:00,59.2,42.1,30.17,SSW,203,2.7,2.7,53,0.00,,,0.00,VWS V13.01,2013-10-23 17:43:00,
2013-10-23 12:48:00,59.4,42.3,30.17,WNW,299,0.0,2.2,53,0.00,,,0.00,VWS V13.01,2013-10-23 17:48:00,
2013-10-23 12:53:00,60.1,43.0,30.17,West,272,2.7,2.7,53,0.00,,,0.00,VWS V13.01,2013-10-23 17:53:00,
2013-10-23 12:58:00,60.7,43.5,30.17,SSW,207,3.1,3.6,53,0.00,,,0.00,VWS V13.01,2013-10-23 17:58:00,
2013-10-23 13:03:00,61.2,44.0,30.17,East,96,4.9,4.9,53,0.00,,,0.00,VWS V13.01,2013-10-23 18:03:00,
2013-10-23 13:08:00,61.2,44.0,30.17,South,178,2.7,3.6,53,0.00,,,0.00,VWS V13.01,2013-10-23 18:08:00,
2013-10-23 13:13:00,61.2,44.0,30.17,ESE,114,2.7,3.6,53,0.00,,,0.00,VWS V13.01,2013-10-23 18:13:00,
2013-10-23 13:18:00,61.9,44.6,30.17,SSE,150,0.0,0.0,53,0.00,,,0.00,VWS V13.01,2013-10-23 18:18:00,
2013-10-23 13:23:00,62.5,44.6,30.17,ESE,115,5.4,5.4,52,0.00,,,0.00,VWS V13.01,2013-10-23 18:23:00,
2013-10-23 13:28:00,62.1,44.3,30.17,East,90,0.0,2.7,52,0.00,,,0.00,VWS V13.01,2013-10-23 18:28:00,
2013-10-23 13:33:00,62.5,44.6,30.17,SSW,201,3.6,5.4,52,0.00,,,0.00,VWS V13.01,2013-10-23 18:33:00,
2013-10-23 13:38:00,62.5,44.6,30.17,WSW,247,2.7,3.6,52,0.00,,,0.00,VWS V13.01,2013-10-23 18:38:00,
2013-10-23 13:43:00,62.3,44.5,30.14,WSW,238,2.2,2.7,52,0.00,,,0.00,VWS V13.01,2013-10-23 18:43:00,
2013-10-23 13:48:00,62.6,44.8,30.14,South,179,3.6,3.6,52,0.00,,,0.00,VWS V13.01,2013-10-23 18:48:00,
2013-10-23 13:53:00,63.0,45.1,30.14,South,178,3.6,5.8,52,0.00,,,0.00,VWS V13.01,2013-10-23 18:53:00,
2013-10-23 13:58:00,63.4,45.5,30.14,ENE,75,3.6,4.0,52,0.00,,,0.00,VWS V13.01,2013-10-23 18:58:00,
2013-10-23 14:03:00,63.2,45.3,30.14,South,172,3.6,4.0,52,0.00,,,0.00,VWS V13.01,2013-10-23 19:03:00,
2013-10-23 14:08:00,62.6,44.8,30.14,SE,132,0.0,0.0,52,0.00,,,0.00,VWS V13.01,2013-10-23 19:08:00,
2013-10-23 14:13:00,63.2,45.3,30.14,East,89,3.6,4.0,52,0.00,,,0.00,VWS V13.01,2013-10-23 19:13:00,
2013-10-23 14:18:00,63.4,45.5,30.14,SSE,166,5.4,5.4,52,0.00,,,0.00,VWS V13.01,2013-10-23 19:18:00,
2013-10-23 14:23:00,63.9,46.0,30.14,South,189,4.0,5.8,52,0.00,,,0.00,VWS V13.01,2013-10-23 19:23:00,
2013-10-23 14:28:00,63.9,46.0,30.11,SE,126,3.6,3.6,52,0.00,,,0.00,VWS V13.01,2013-10-23 19:28:00,
2013-10-23 14:33:00,64.3,45.8,30.11,South,178,5.4,5.8,51,0.00,,,0.00,VWS V13.01,2013-10-23 19:33:00,
2013-10-23 14:38:00,63.7,45.8,30.11,South,174,6.7,6.7,52,0.00,,,0.00,VWS V13.01,2013-10-23 19:38:00,
2013-10-23 14:43:00,63.4,45.5,30.11,SSE,161,3.6,6.3,52,0.00,,,0.00,VWS V13.01,2013-10-23 19:43:00,
2013-10-23 14:48:00,63.7,45.8,30.11,SSW,194,5.4,5.4,52,0.00,,,0.00,VWS V13.01,2013-10-23 19:48:00,
2013-10-23 14:53:00,64.1,46.1,30.11,SSE,151,3.6,4.0,52,0.00,,,0.00,VWS V13.01,2013-10-23 19:53:00,
2013-10-23 14:58:00,64.3,45.8,30.11,East,91,2.7,2.7,51,0.00,,,0.00,VWS V13.01,2013-10-23 19:58:00,
2013-10-23 15:03:00,64.3,45.8,30.11,SSE,164,3.1,3.1,51,0.00,,,0.00,VWS V13.01,2013-10-23 20:03:00,
2013-10-23 15:07:00,64.3,46.3,30.11,SE,139,4.0,4.9,52,0.00,,,0.00,VWS V13.01,2013-10-23 20:07:00,
2013-10-23 15:12:00,64.1,46.1,30.11,SE,132,5.4,5.4,52,0.00,,,0.00,VWS V13.01,2013-10-23 20:12:00,
2013-10-23 15:17:00,64.1,46.1,30.11,SE,143,3.6,3.6,52,0.00,,,0.00,VWS V13.01,2013-10-23 20:17:00,
2013-10-23 15:22:00,63.9,46.0,30.11,SSE,147,5.8,6.3,52,0.00,,,0.00,VWS V13.01,2013-10-23 20:22:00,
2013-10-23 15:27:00,63.7,45.8,30.11,SE,131,4.9,4.9,52,0.00,,,0.00,VWS V13.01,2013-10-23 20:27:00,
2013-10-23 15:32:00,64.1,45.6,30.11,SE,129,0.0,0.0,51,0.00,,,0.00,VWS V13.01,2013-10-23 20:32:00,
2013-10-23 15:37:00,64.3,45.8,30.11,SSE,150,6.3,6.3,51,0.00,,,0.00,VWS V13.01,2013-10-23 20:37:00,
2013-10-23 15:42:00,64.3,45.8,30.11,SSW,202,4.0,5.4,51,0.00,,,0.00,VWS V13.01,2013-10-23 20:42:00,
2013-10-23 15:47:00,64.8,46.8,30.11,ESE,123,2.7,2.7,52,0.00,,,0.00,VWS V13.01,2013-10-23 20:47:00,
2013-10-23 15:52:00,65.0,47.0,30.11,SSW,194,3.1,3.1,52,0.00,,,0.00,VWS V13.01,2013-10-23 20:52:00,
2013-10-23 15:57:00,65.0,46.4,30.11,SE,129,4.0,4.0,51,0.00,,,0.00,VWS V13.01,2013-10-23 20:57:00,
2013-10-23 16:02:00,64.8,46.8,30.11,SE,130,3.6,4.5,52,0.00,,,0.00,VWS V13.01,2013-10-23 21:02:00,
2013-10-23 16:07:00,64.8,46.8,30.11,SE,128,4.0,4.9,52,0.00,,,0.00,VWS V13.01,2013-10-23 21:07:00,
2013-10-23 16:12:00,64.8,46.8,30.11,SE,128,3.6,3.6,52,0.00,,,0.00,VWS V13.01,2013-10-23 21:12:00,
2013-10-23 16:17:00,65.0,47.0,30.11,SSE,166,2.7,5.4,52,0.00,,,0.00,VWS V13.01,2013-10-23 21:17:00,
2013-10-23 16:22:00,65.0,47.0,30.11,ESE,112,4.0,4.0,52,0.00,,,0.00,VWS V13.01,2013-10-23 21:22:00,
2013-10-23 16:27:00,65.2,47.1,30.09,SSE,147,3.1,4.0,52,0.00,,,0.00,VWS V13.01,2013-10-23 21:27:00,
2013-10-23 16:32:00,65.0,47.0,30.09,ESE,108,3.1,5.4,52,0.00,,,0.00,VWS V13.01,2013-10-23 21:32:00,
2013-10-23 16:37:00,64.6,46.1,30.09,South,173,4.9,4.9,51,0.00,,,0.00,VWS V13.01,2013-10-23 21:37:00,
2013-10-23 16:42:00,64.6,46.6,30.09,ESE,107,3.1,3.6,52,0.00,,,0.00,VWS V13.01,2013-10-23 21:42:00,
2013-10-23 16:47:00,64.6,46.6,30.09,ESE,112,2.2,2.2,52,0.00,,,0.00,VWS V13.01,2013-10-23 21:47:00,
2013-10-23 16:52:00,64.6,46.6,30.09,NNE,28,0.0,0.0,52,0.00,,,0.00,VWS V13.01,2013-10-23 21:52:00,
2013-10-23 16:57:00,64.8,46.8,30.09,ESE,108,3.6,3.6,52,0.00,,,0.00,VWS V13.01,2013-10-23 21:57:00,
2013-10-23 17:02:00,64.6,46.6,30.09,ESE,123,2.2,2.2,52,0.00,,,0.00,VWS V13.01,2013-10-23 22:02:00,
2013-10-23 17:07:00,64.4,46.5,30.09,SSE,165,0.0,2.2,52,0.00,,,0.00,VWS V13.01,2013-10-23 22:07:00,
2013-10-23 17:12:00,64.3,46.3,30.09,ESE,123,2.2,2.7,52,0.00,,,0.00,VWS V13.01,2013-10-23 22:12:00,
2013-10-23 17:17:00,64.3,46.3,30.09,South,172,0.0,3.1,52,0.00,,,0.00,VWS V13.01,2013-10-23 22:17:00,
2013-10-23 17:22:00,64.3,46.3,30.09,SSE,165,0.0,0.0,52,0.00,,,0.00,VWS V13.01,2013-10-23 22:22:00,
2013-10-23 17:27:00,64.3,46.3,30.09,SSE,158,0.0,2.7,52,0.00,,,0.00,VWS V13.01,2013-10-23 22:27:00,
2013-10-23 17:32:00,64.1,46.1,30.09,SSE,147,0.0,2.2,52,0.00,,,0.00,VWS V13.01,2013-10-23 22:32:00,
2013-10-23 17:37:00,64.1,46.6,30.09,SSE,147,0.0,0.0,53,0.00,,,0.00,VWS V13.01,2013-10-23 22:37:00,
2013-10-23 17:42:00,64.1,46.1,30.06,ESE,117,0.0,0.0,52,0.00,,,0.00,VWS V13.01,2013-10-23 22:42:00,
2013-10-23 17:47:00,64.4,47.0,30.06,ESE,117,0.0,0.0,53,0.00,,,0.00,VWS V13.01,2013-10-23 22:47:00,
2013-10-23 17:52:00,64.4,47.0,30.06,ESE,117,0.0,0.0,53,0.00,,,0.00,VWS V13.01,2013-10-23 22:52:00,
2013-10-23 17:57:00,64.4,47.0,30.06,ESE,117,0.0,0.0,53,0.00,,,0.00,VWS V13.01,2013-10-23 22:57:00,
2013-10-23 18:02:00,63.9,46.5,30.06,ESE,106,0.0,0.0,53,0.00,,,0.00,VWS V13.01,2013-10-23 23:02:00,
2013-10-23 18:07:00,63.2,46.3,30.06,NE,37,0.0,0.0,54,0.00,,,0.00,VWS V13.01,2013-10-23 23:07:00,
2013-10-23 18:12:00,62.8,45.9,30.06,NE,37,0.0,0.0,54,0.00,,,0.00,VWS V13.01,2013-10-23 23:12:00,
2013-10-23 18:17:00,62.5,46.1,30.06,NE,37,0.0,0.0,55,0.00,,,0.00,VWS V13.01,2013-10-23 23:17:00,
2013-10-23 18:22:00,61.4,46.9,30.06,NE,36,0.0,0.0,59,0.00,,,0.00,VWS V13.01,2013-10-23 23:22:00,
2013-10-23 18:27:00,60.1,47.1,30.06,ENE,64,0.0,0.0,62,0.00,,,0.00,VWS V13.01,2013-10-23 23:27:00,
2013-10-23 18:32:00,59.8,46.7,30.06,ENE,65,0.0,0.0,62,0.00,,,0.00,VWS V13.01,2013-10-23 23:32:00,
2013-10-23 18:37:00,59.0,46.5,30.06,ENE,65,0.0,0.0,63,0.00,,,0.00,VWS V13.01,2013-10-23 23:37:00,
2013-10-23 18:42:00,58.5,46.4,30.06,ENE,65,0.0,0.0,64,0.00,,,0.00,VWS V13.01,2013-10-23 23:42:00,
2013-10-23 18:47:00,57.8,47.7,30.06,ENE,65,0.0,0.0,69,0.00,,,0.00,VWS V13.01,2013-10-23 23:47:00,
2013-10-23 18:52:00,56.9,47.6,30.06,NNE,30,3.1,3.1,71,0.00,,,0.00,VWS V13.01,2013-10-23 23:52:00,
2013-10-23 18:57:00,56.0,47.5,30.06,NNE,30,2.7,2.7,73,0.00,,,0.00,VWS V13.01,2013-10-23 23:57:00,
2013-10-23 19:02:00,55.4,47.3,30.06,NNE,30,2.2,2.2,74,0.00,,,0.00,VWS V13.01,2013-10-24 00:02:00,
2013-10-23 19:07:00,54.5,47.5,30.06,NNE,30,0.0,2.2,77,0.00,,,0.00,VWS V13.01,2013-10-24 00:07:00,
2013-10-23 19:12:00,54.0,47.3,30.06,NNE,30,2.2,2.2,78,0.00,,,0.00,VWS V13.01,2013-10-24 00:12:00,
2013-10-23 19:17:00,53.5,47.1,30.06,NNE,30,2.2,2.2,79,0.00,,,0.00,VWS V13.01,2013-10-24 00:17:00,
2013-10-23 19:22:00,53.1,46.8,30.06,NNE,30,2.2,2.2,79,0.00,,,0.00,VWS V13.01,2013-10-24 00:22:00,
2013-10-23 19:27:00,52.7,46.8,30.06,NNE,30,2.7,2.7,80,0.00,,,0.00,VWS V13.01,2013-10-24 00:27:00,
2013-10-23 19:32:00,52.6,46.6,30.06,NNE,30,0.0,0.0,80,0.00,,,0.00,VWS V13.01,2013-10-24 00:32:00,
2013-10-23 19:37:00,52.2,46.9,30.06,NNE,30,2.2,2.2,82,0.00,,,0.00,VWS V13.01,2013-10-24 00:37:00,
2013-10-23 19:42:00,51.8,46.8,30.06,NNE,30,2.2,2.2,83,0.00,,,0.00,VWS V13.01,2013-10-24 00:42:00,
2013-10-23 19:47:00,51.5,46.5,30.06,NNE,30,2.7,2.7,83,0.00,,,0.00,VWS V13.01,2013-10-24 00:47:00,
2013-10-23 19:52:00,51.1,47.1,30.06,NNE,30,2.2,2.2,86,0.00,,,0.00,VWS V13.01,2013-10-24 00:52:00,
2013-10-23 19:57:00,50.8,46.7,30.06,NNE,30,2.2,2.2,86,0.00,,,0.00,VWS V13.01,2013-10-24 00:57:00,
2013-10-23 20:02:00,50.2,46.8,30.06,NNE,30,2.7,2.7,88,0.00,,,0.00,VWS V13.01,2013-10-24 01:02:00,
2013-10-23 20:07:00,49.9,47.0,30.06,NNE,30,0.0,0.0,90,0.00,,,0.00,VWS V13.01,2013-10-24 01:07:00,
2013-10-23 20:12:00,49.7,46.9,30.06,NNE,30,0.0,0.0,90,0.00,,,0.00,VWS V13.01,2013-10-24 01:12:00,
2013-10-23 20:17:00,49.7,46.9,30.06,NNE,30,0.0,0.0,90,0.00,,,0.00,VWS V13.01,2013-10-24 01:17:00,
2013-10-23 20:22:00,49.5,46.4,30.06,NNE,30,0.0,0.0,89,0.00,,,0.00,VWS V13.01,2013-10-24 01:22:00,
2013-10-23 20:27:00,49.3,46.2,30.09,NNE,30,0.0,0.0,89,0.00,,,0.00,VWS V13.01,2013-10-24 01:27:00,
2013-10-23 20:32:00,49.3,45.6,30.09,NNE,30,0.0,0.0,87,0.00,,,0.00,VWS V13.01,2013-10-24 01:32:00,
2013-10-23 20:37:00,49.3,45.6,30.09,NNE,31,3.1,3.1,87,0.00,,,0.00,VWS V13.01,2013-10-24 01:37:00,
2013-10-23 20:42:00,49.3,46.2,30.09,NE,41,3.1,3.1,89,0.00,,,0.00,VWS V13.01,2013-10-24 01:42:00,
2013-10-23 20:47:00,49.1,46.0,30.09,NE,41,2.7,2.7,89,0.00,,,0.00,VWS V13.01,2013-10-24 01:47:00,
2013-10-23 20:52:00,49.0,45.9,30.09,NE,41,0.0,0.0,89,0.00,,,0.00,VWS V13.01,2013-10-24 01:52:00,
2013-10-23 20:57:00,48.8,44.8,30.09,NNE,32,0.0,0.0,86,0.00,,,0.00,VWS V13.01,2013-10-24 01:57:00,
2013-10-23 21:02:00,49.1,45.4,30.09,NNE,32,0.0,0.0,87,0.00,,,0.00,VWS V13.01,2013-10-24 02:02:00,
2013-10-23 21:06:00,49.1,45.1,30.09,NE,44,0.0,0.0,86,0.00,,,0.00,VWS V13.01,2013-10-24 02:06:00,
2013-10-23 21:11:00,49.1,45.1,30.09,NE,43,0.0,0.0,86,0.00,,,0.00,VWS V13.01,2013-10-24 02:11:00,
2013-10-23 21:16:00,49.0,45.0,30.09,NE,42,0.0,0.0,86,0.00,,,0.00,VWS V13.01,2013-10-24 02:16:00,
2013-10-23 21:21:00,48.8,44.8,30.09,NE,42,0.0,0.0,86,0.00,,,0.00,VWS V13.01,2013-10-24 02:21:00,
2013-10-23 21:26:00,48.8,44.8,30.09,NE,42,0.0,0.0,86,0.00,,,0.00,VWS V13.01,2013-10-24 02:26:00,
2013-10-23 21:31:00,48.8,44.8,30.09,NE,42,0.0,0.0,86,0.00,,,0.00,VWS V13.01,2013-10-24 02:31:00,
2013-10-23 21:36:00,48.4,44.4,30.09,NE,42,0.0,0.0,86,0.00,,,0.00,VWS V13.01,2013-10-24 02:36:00,
2013-10-23 21:41:00,48.4,44.4,30.09,NE,42,0.0,0.0,86,0.00,,,0.00,VWS V13.01,2013-10-24 02:41:00,
2013-10-23 21:46:00,48.2,44.6,30.09,NE,42,0.0,0.0,87,0.00,,,0.00,VWS V13.01,2013-10-24 02:46:00,
2013-10-23 21:51:00,48.1,44.4,30.09,NE,42,0.0,0.0,87,0.00,,,0.00,VWS V13.01,2013-10-24 02:51:00,
2013-10-23 21:56:00,47.9,44.5,30.09,NE,42,0.0,0.0,88,0.00,,,0.00,VWS V13.01,2013-10-24 02:56:00,
2013-10-23 22:01:00,47.7,44.9,30.09,NE,42,0.0,0.0,90,0.00,,,0.00,VWS V13.01,2013-10-24 03:01:00,
2013-10-23 22:06:00,47.5,45.0,30.09,NE,42,0.0,0.0,91,0.00,,,0.00,VWS V13.01,2013-10-24 03:06:00,
2013-10-23 22:11:00,47.3,44.8,30.09,NE,42,0.0,0.0,91,0.00,,,0.00,VWS V13.01,2013-10-24 03:11:00,
2013-10-23 22:16:00,47.2,44.7,30.09,NE,42,0.0,0.0,91,0.00,,,0.00,VWS V13.01,2013-10-24 03:16:00,
2013-10-23 22:21:00,47.0,44.5,30.09,NE,42,0.0,0.0,91,0.00,,,0.00,VWS V13.01,2013-10-24 03:21:00,
2013-10-23 22:26:00,47.0,44.5,30.09,NE,42,0.0,0.0,91,0.00,,,0.00,VWS V13.01,2013-10-24 03:26:00,
2013-10-23 22:31:00,46.8,44.3,30.09,NE,42,0.0,0.0,91,0.00,,,0.00,VWS V13.01,2013-10-24 03:31:00,
2013-10-23 22:36:00,46.8,44.6,30.09,NE,42,0.0,0.0,92,0.00,,,0.00,VWS V13.01,2013-10-24 03:36:00,
2013-10-23 22:41:00,46.6,44.1,30.11,NE,42,0.0,0.0,91,0.00,,,0.00,VWS V13.01,2013-10-24 03:41:00,
2013-10-23 22:46:00,46.6,44.4,30.11,NE,42,0.0,0.0,92,0.00,,,0.00,VWS V13.01,2013-10-24 03:46:00,
2013-10-23 22:51:00,46.4,44.5,30.11,NE,42,0.0,0.0,93,0.00,,,0.00,VWS V13.01,2013-10-24 03:51:00,
2013-10-23 22:56:00,46.4,44.8,30.11,NE,42,0.0,0.0,94,0.00,,,0.00,VWS V13.01,2013-10-24 03:56:00,
2013-10-23 23:01:00,46.3,44.9,30.11,NE,42,0.0,0.0,95,0.00,,,0.00,VWS V13.01,2013-10-24 04:01:00,
2013-10-23 23:06:00,46.3,45.2,30.11,NE,42,0.0,0.0,96,0.00,,,0.00,VWS V13.01,2013-10-24 04:06:00,
2013-10-23 23:11:00,46.3,45.5,30.11,NE,42,0.0,0.0,97,0.00,,,0.00,VWS V13.01,2013-10-24 04:11:00,
2013-10-23 23:16:00,46.1,45.3,30.11,NE,42,0.0,0.0,97,0.00,,,0.00,VWS V13.01,2013-10-24 04:16:00,
2013-10-23 23:21:00,45.7,44.9,30.11,NE,41,0.0,0.0,97,0.00,,,0.00,VWS V13.01,2013-10-24 04:21:00,
2013-10-23 23:26:00,45.5,44.7,30.11,NE,42,0.0,0.0,97,0.00,,,0.00,VWS V13.01,2013-10-24 04:26:00,
2013-10-23 23:31:00,45.4,44.6,30.11,NE,42,0.0,0.0,97,0.00,,,0.00,VWS V13.01,2013-10-24 04:31:00,
2013-10-23 23:36:00,45.2,44.1,30.11,NE,42,0.0,0.0,96,0.00,,,0.00,VWS V13.01,2013-10-24 04:36:00,
2013-10-23 23:41:00,45.2,44.1,30.11,NE,42,0.0,0.0,96,0.00,,,0.00,VWS V13.01,2013-10-24 04:41:00,
2013-10-23 23:46:00,45.0,43.9,30.11,NE,42,0.0,0.0,96,0.00,,,0.00,VWS V13.01,2013-10-24 04:46:00,
2013-10-23 23:51:00,45.0,44.2,30.11,NE,42,0.0,0.0,97,0.00,,,0.00,VWS V13.01,2013-10-24 04:51:00,
2013-10-23 23:56:00,45.0,44.2,30.11,NE,42,0.0,0.0,97,0.00,,,0.00,VWS V13.01,2013-10-24 04:56:00,